createdAt,value
2018-02-22T00:00:26.589Z,3.60
2018-02-22T00:02:54.809Z,3.50
2018-02-22T00:05:22.505Z,3.50
2018-02-22T00:07:49.944Z,3.50
2018-02-22T00:10:17.478Z,3.50
2018-02-22T00:12:44.985Z,3.50
2018-02-22T00:15:12.937Z,3.50
2018-02-22T00:17:40.498Z,3.50
2018-02-22T00:20:08.246Z,3.50
2018-02-22T00:22:35.700Z,3.50
2018-02-22T00:25:03.384Z,3.50
2018-02-22T00:27:31.048Z,3.50
2018-02-22T00:29:59.296Z,3.50
2018-02-22T00:32:26.773Z,3.40
2018-02-22T00:34:54.704Z,3.40
2018-02-22T00:37:22.173Z,3.40
2018-02-22T00:39:50.029Z,3.40
2018-02-22T00:42:17.468Z,3.40
2018-02-22T00:44:44.948Z,3.40
2018-02-22T00:47:13.078Z,3.40
2018-02-22T00:49:41.359Z,3.30
2018-02-22T00:52:09.188Z,3.30
2018-02-22T00:54:38.791Z,3.20
2018-02-22T00:57:06.233Z,3.20
2018-02-22T00:59:33.730Z,3.20
2018-02-22T01:02:02.499Z,3.20
2018-02-22T01:04:30.160Z,3.20
2018-02-22T01:06:58.231Z,3.20
2018-02-22T01:09:27.286Z,3.40
2018-02-22T01:11:54.782Z,3.40
2018-02-22T01:14:23.263Z,3.50
2018-02-22T01:16:50.701Z,3.40
2018-02-22T01:19:18.376Z,3.40
2018-02-22T01:21:46.040Z,3.40
2018-02-22T01:24:13.997Z,3.30
2018-02-22T01:26:41.452Z,3.20
2018-02-22T01:29:08.923Z,3.20
2018-02-22T01:31:36.392Z,3.20
2018-02-22T01:34:05.357Z,3.10
2018-02-22T01:36:33.133Z,3.10
2018-02-22T01:39:00.785Z,3.00
2018-02-22T01:41:28.580Z,3.00
2018-02-22T01:43:56.816Z,3.00
2018-02-22T01:46:24.260Z,3.00
2018-02-22T01:48:51.738Z,2.90
2018-02-22T01:51:19.218Z,2.90
2018-02-22T01:53:47.068Z,2.90
2018-02-22T01:56:15.052Z,2.90
2018-02-22T01:58:43.304Z,2.90
2018-02-22T02:01:10.787Z,2.90
2018-02-22T02:03:39.044Z,2.80
2018-02-22T02:06:06.495Z,2.80
2018-02-22T02:08:34.001Z,2.80
2018-02-22T02:11:01.920Z,2.80
2018-02-22T02:13:29.396Z,2.80
2018-02-22T02:15:58.059Z,2.80
2018-02-22T02:18:25.896Z,2.80
2018-02-22T02:20:53.361Z,2.80
2018-02-22T02:23:21.055Z,2.80
2018-02-22T02:25:48.704Z,2.80
2018-02-22T02:28:16.375Z,2.70
2018-02-22T02:30:43.828Z,2.70
2018-02-22T02:33:11.618Z,2.70
2018-02-22T02:35:40.268Z,2.70
2018-02-22T02:38:07.754Z,2.60
2018-02-22T02:40:36.416Z,2.70
2018-02-22T02:43:03.908Z,2.70
2018-02-22T02:45:32.551Z,2.70
2018-02-22T02:48:00.066Z,2.70
2018-02-22T02:50:27.517Z,2.70
2018-02-22T02:52:55.442Z,2.70
2018-02-22T02:55:23.134Z,2.70
2018-02-22T02:57:51.376Z,2.70
2018-02-22T03:00:19.598Z,2.70
2018-02-22T03:02:47.403Z,2.70
2018-02-22T03:05:14.881Z,2.70
2018-02-22T03:07:42.628Z,2.70
2018-02-22T03:10:10.094Z,2.70
2018-02-22T03:12:37.591Z,2.70
2018-02-22T03:15:06.139Z,2.70
2018-02-22T03:17:33.614Z,2.80
2018-02-22T03:20:02.482Z,2.70
2018-02-22T03:22:30.065Z,2.70
2018-02-22T03:24:58.920Z,2.80
2018-02-22T03:27:26.416Z,2.80
2018-02-22T03:29:54.629Z,2.70
2018-02-22T03:32:22.100Z,2.70
2018-02-22T03:34:50.297Z,2.80
2018-02-22T03:37:17.737Z,2.70
2018-02-22T03:39:45.772Z,2.70
2018-02-22T03:42:13.237Z,2.60
2018-02-22T03:44:40.734Z,2.60
2018-02-22T03:47:08.957Z,2.60
2018-02-22T03:49:36.438Z,2.60
2018-02-22T03:52:04.361Z,2.50
2018-02-22T03:54:33.869Z,2.50
2018-02-22T03:57:02.558Z,2.50
2018-02-22T03:59:30.790Z,2.50
2018-02-22T04:01:58.236Z,2.50
2018-02-22T04:04:25.775Z,2.50
2018-02-22T04:06:53.226Z,2.40
2018-02-22T04:09:20.976Z,2.40
2018-02-22T04:11:48.800Z,2.30
2018-02-22T04:14:16.671Z,2.30
2018-02-22T04:16:44.187Z,2.30
2018-02-22T04:19:11.645Z,2.20
2018-02-22T04:21:39.620Z,2.20
2018-02-22T04:24:07.136Z,2.20
2018-02-22T04:26:35.365Z,2.20
2018-02-22T04:29:03.233Z,2.20
2018-02-22T04:31:30.686Z,2.20
2018-02-22T04:33:58.460Z,2.10
2018-02-22T04:36:26.134Z,2.10
2018-02-22T04:38:54.200Z,2.00
2018-02-22T04:41:21.648Z,2.00
2018-02-22T04:43:49.518Z,2.00
2018-02-22T04:46:17.649Z,1.90
2018-02-22T04:48:45.226Z,1.90
2018-02-22T04:51:13.443Z,1.90
2018-02-22T04:53:40.953Z,1.80
2018-02-22T04:56:09.008Z,1.80
2018-02-22T04:58:36.484Z,1.80
2018-02-22T05:01:04.241Z,1.80
2018-02-22T05:03:31.709Z,1.80
2018-02-22T05:05:59.182Z,1.80
2018-02-22T05:08:26.645Z,1.80
2018-02-22T05:10:54.124Z,1.80
2018-02-22T05:13:22.410Z,1.70
2018-02-22T05:15:51.181Z,1.70
2018-02-22T05:18:19.397Z,1.70
2018-02-22T05:20:46.843Z,1.70
2018-02-22T05:23:14.456Z,1.70
2018-02-22T05:25:41.900Z,1.60
2018-02-22T05:28:09.381Z,1.60
2018-02-22T05:30:37.437Z,1.50
2018-02-22T05:33:04.908Z,1.60
2018-02-22T05:35:32.868Z,1.50
2018-02-22T05:38:00.313Z,1.60
2018-02-22T05:40:28.593Z,1.60
2018-02-22T05:42:56.049Z,1.60
2018-02-22T05:45:23.715Z,1.60
2018-02-22T05:47:51.215Z,1.60
2018-02-22T05:50:18.686Z,1.60
2018-02-22T05:52:46.694Z,1.60
2018-02-22T05:55:14.604Z,1.60
2018-02-22T05:57:42.182Z,1.60
2018-02-22T06:00:09.667Z,1.60
2018-02-22T06:02:37.137Z,1.60
2018-02-22T06:05:05.114Z,1.60
2018-02-22T06:07:34.064Z,1.60
2018-02-22T06:10:01.779Z,1.50
2018-02-22T06:12:30.020Z,1.50
2018-02-22T06:14:57.501Z,1.50
2018-02-22T06:17:24.985Z,1.50
2018-02-22T06:19:53.200Z,1.50
2018-02-22T06:22:20.680Z,1.50
2018-02-22T06:24:48.130Z,1.40
2018-02-22T06:27:15.892Z,1.50
2018-02-22T06:29:43.340Z,1.40
2018-02-22T06:32:10.945Z,1.40
2018-02-22T06:34:40.014Z,1.40
2018-02-22T06:37:07.526Z,1.40
2018-02-22T06:39:35.524Z,1.40
2018-02-22T06:42:02.988Z,1.40
2018-02-22T06:44:30.504Z,1.40
2018-02-22T06:46:58.324Z,1.50
2018-02-22T06:49:25.765Z,1.50
2018-02-22T06:51:53.240Z,1.50
2018-02-22T06:54:22.353Z,1.50
2018-02-22T06:56:50.559Z,1.50
2018-02-22T06:59:19.190Z,1.50
2018-02-22T07:01:46.803Z,1.60
2018-02-22T07:04:14.265Z,1.50
2018-02-22T07:06:41.716Z,1.50
2018-02-22T07:09:09.278Z,1.60
2018-02-22T07:11:36.973Z,1.50
2018-02-22T07:14:05.155Z,1.50
2018-02-22T07:16:32.624Z,1.50
2018-02-22T07:19:02.742Z,1.60
2018-02-22T07:21:31.709Z,1.60
2018-02-22T07:23:59.160Z,1.50
2018-02-22T07:26:26.953Z,1.50
2018-02-22T07:28:54.427Z,1.60
2018-02-22T07:31:23.073Z,1.60
2018-02-22T07:33:51.192Z,1.60
2018-02-22T07:36:19.126Z,1.60
2018-02-22T07:38:46.622Z,1.70
2018-02-22T07:41:14.451Z,1.70
2018-02-22T07:43:42.400Z,1.80
2018-02-22T07:46:09.855Z,1.80
2018-02-22T07:48:37.306Z,1.80
2018-02-22T07:51:05.289Z,1.80
2018-02-22T07:53:32.738Z,1.90
2018-02-22T07:56:00.446Z,1.90
2018-02-22T07:58:29.196Z,2.10
2018-02-22T08:00:56.718Z,2.10
2018-02-22T08:03:24.192Z,2.10
2018-02-22T08:05:52.433Z,2.20
2018-02-22T08:08:19.884Z,2.20
2018-02-22T08:10:47.596Z,2.30
2018-02-22T08:13:15.253Z,2.30
2018-02-22T08:15:44.745Z,2.40
2018-02-22T08:18:12.208Z,2.40
2018-02-22T08:20:39.662Z,2.50
2018-02-22T08:23:07.204Z,2.50
2018-02-22T08:25:34.845Z,2.60
2018-02-22T08:28:02.379Z,2.60
2018-02-22T08:30:30.604Z,2.80
2018-02-22T08:32:58.071Z,2.80
2018-02-22T08:35:26.783Z,3.00
2018-02-22T08:37:54.737Z,3.00
2018-02-22T08:40:22.519Z,3.00
2018-02-22T08:42:50.075Z,3.10
2018-02-22T08:45:17.532Z,3.20
2018-02-22T08:47:45.092Z,3.30
2018-02-22T08:50:13.423Z,3.30
2018-02-22T08:52:40.910Z,3.40
2018-02-22T08:55:08.789Z,3.50
2018-02-22T08:57:36.866Z,3.60
2018-02-22T09:00:04.525Z,3.70
2018-02-22T09:02:32.005Z,3.80
2018-02-22T09:04:59.452Z,3.90
2018-02-22T09:07:27.672Z,4.10
2018-02-22T09:09:55.175Z,4.10
2018-02-22T09:12:22.608Z,4.10
2018-02-22T09:14:50.119Z,4.30
2018-02-22T09:17:17.726Z,4.30
2018-02-22T09:19:45.171Z,4.40
2018-02-22T09:22:12.644Z,4.50
2018-02-22T09:24:40.144Z,4.70
2018-02-22T09:27:07.588Z,4.80
2018-02-22T09:29:35.831Z,5.00
2018-02-22T09:32:03.277Z,5.00
2018-02-22T09:34:31.458Z,5.10
2018-02-22T09:36:59.374Z,5.10
2018-02-22T09:39:27.923Z,5.30
2018-02-22T09:41:55.361Z,5.30
2018-02-22T09:44:22.829Z,5.40
2018-02-22T09:46:51.049Z,5.50
2018-02-22T09:49:18.629Z,5.50
2018-02-22T09:51:46.665Z,5.60
2018-02-22T09:54:15.429Z,5.80
2018-02-22T09:56:43.308Z,5.90
2018-02-22T09:59:11.953Z,6.00
2018-02-22T10:01:39.400Z,6.00
2018-02-22T10:04:06.947Z,6.10
2018-02-22T10:06:34.384Z,6.20
2018-02-22T10:09:01.823Z,6.20
2018-02-22T10:11:30.104Z,6.40
2018-02-22T10:13:58.344Z,6.50
2018-02-22T10:16:25.790Z,6.50
2018-02-22T10:18:53.441Z,6.60
2018-02-22T10:21:20.881Z,6.60
2018-02-22T10:23:48.474Z,6.70
2018-02-22T10:26:15.926Z,6.70
2018-02-22T10:28:43.394Z,6.80
2018-02-22T10:31:11.355Z,6.90
2018-02-22T10:33:39.360Z,7.00
2018-02-22T10:36:07.199Z,7.00
2018-02-22T10:38:34.659Z,7.20
2018-02-22T10:41:02.624Z,7.30
2018-02-22T10:43:30.378Z,7.50
2018-02-22T10:45:57.821Z,7.50
2018-02-22T10:48:25.399Z,7.70
2018-02-22T10:50:53.737Z,7.70
2018-02-22T10:53:21.191Z,7.80
2018-02-22T10:55:49.204Z,7.90
2018-02-22T10:58:17.169Z,7.90
2018-02-22T11:00:50.461Z,8.00
2018-02-22T11:03:17.962Z,8.10
2018-02-22T11:05:45.992Z,8.20
2018-02-22T11:08:13.457Z,8.20
2018-02-22T11:10:41.088Z,8.40
2018-02-22T11:13:08.525Z,8.50
2018-02-22T11:15:36.240Z,8.70
2018-02-22T11:18:03.711Z,8.80
2018-02-22T11:20:32.058Z,9.10
2018-02-22T11:22:59.973Z,9.10
2018-02-22T11:25:27.789Z,9.20
2018-02-22T11:27:55.258Z,9.30
2018-02-22T11:30:24.204Z,9.60
2018-02-22T11:32:51.777Z,9.60
2018-02-22T11:35:19.678Z,9.70
2018-02-22T11:37:47.880Z,9.90
2018-02-22T11:40:15.712Z,9.80
2018-02-22T11:42:44.118Z,9.90
2018-02-22T11:45:13.206Z,10.20
2018-02-22T11:47:41.435Z,10.20
2018-02-22T11:50:09.571Z,10.20
2018-02-22T11:52:37.022Z,10.30
2018-02-22T11:55:04.964Z,10.40
2018-02-22T11:57:33.637Z,10.50
2018-02-22T12:00:01.140Z,10.40
2018-02-22T12:02:28.589Z,10.50
2018-02-22T12:04:56.052Z,10.50
2018-02-22T12:07:24.176Z,10.60
2018-02-22T12:09:52.970Z,10.60
2018-02-22T12:12:20.613Z,10.80
2018-02-22T12:14:48.098Z,10.90
2018-02-22T12:17:15.669Z,11.00
2018-02-22T12:19:43.916Z,11.20
2018-02-22T12:22:12.258Z,11.10
2018-02-22T12:24:39.805Z,11.30
2018-02-22T12:27:07.810Z,11.40
2018-02-22T12:29:35.322Z,11.50
2018-02-22T12:32:02.833Z,11.60
2018-02-22T12:34:31.936Z,11.80
2018-02-22T12:36:59.420Z,12.00
2018-02-22T12:39:28.235Z,12.20
2018-02-22T12:41:55.732Z,12.20
2018-02-22T12:44:23.212Z,12.30
2018-02-22T12:46:51.595Z,12.40
2018-02-22T12:49:19.845Z,12.50
2018-02-22T12:51:48.070Z,12.40
2018-02-22T12:54:16.289Z,12.50
2018-02-22T12:56:43.756Z,12.60
2018-02-22T12:59:12.598Z,12.60
2018-02-22T13:01:40.170Z,12.70
2018-02-22T13:04:09.714Z,12.80
2018-02-22T13:06:38.031Z,12.80
2018-02-22T13:09:05.742Z,12.80
2018-02-22T13:11:33.967Z,12.70
2018-02-22T13:14:01.457Z,12.60
2018-02-22T13:16:29.487Z,12.60
2018-02-22T13:18:57.716Z,12.50
2018-02-22T13:21:25.307Z,12.50
2018-02-22T13:23:54.597Z,12.50
2018-02-22T13:26:22.755Z,12.50
2018-02-22T13:28:50.341Z,12.50
2018-02-22T13:31:18.725Z,12.50
2018-02-22T13:34:00.143Z,12.50
2018-02-22T13:36:27.984Z,12.50
2018-02-22T13:39:12.821Z,12.40
2018-02-22T13:41:40.349Z,12.30
2018-02-22T13:44:20.066Z,12.40
2018-02-22T13:46:47.519Z,12.50
2018-02-22T13:49:27.118Z,12.40
2018-02-22T13:51:54.607Z,12.20
2018-02-22T13:54:23.038Z,12.20
2018-02-22T13:57:02.476Z,12.20
2018-02-22T13:59:30.731Z,12.20
2018-02-22T14:02:09.917Z,12.20
2018-02-22T14:04:38.220Z,12.50
2018-02-22T14:07:06.326Z,12.50
2018-02-22T14:09:34.448Z,12.60
2018-02-22T14:12:02.347Z,12.80
2018-02-22T14:14:29.854Z,12.90
2018-02-22T14:16:58.359Z,12.80
2018-02-22T14:19:25.801Z,12.80
2018-02-22T14:21:54.313Z,12.50
2018-02-22T14:24:21.819Z,12.40
2018-02-22T14:26:49.346Z,12.40
2018-02-22T14:29:16.836Z,12.40
2018-02-22T14:31:46.280Z,12.50
2018-02-22T14:34:14.239Z,12.50
2018-02-22T14:36:42.254Z,12.50
2018-02-22T14:39:10.234Z,12.40
2018-02-22T14:41:37.675Z,12.30
2018-02-22T14:44:05.146Z,12.30
2018-02-22T14:46:32.581Z,12.30
2018-02-22T14:49:00.061Z,12.40
2018-02-22T14:51:29.016Z,12.50
2018-02-22T14:53:56.929Z,12.50
2018-02-22T14:56:25.714Z,12.70
2018-02-22T14:58:53.763Z,12.70
2018-02-22T15:01:21.594Z,12.80
2018-02-22T15:03:49.786Z,13.00
2018-02-22T15:06:17.257Z,13.00
2018-02-22T15:08:44.735Z,13.00
2018-02-22T15:11:12.427Z,13.00
2018-02-22T15:13:39.879Z,13.00
2018-02-22T15:16:08.317Z,13.00
2018-02-22T15:18:35.941Z,12.90
2018-02-22T15:21:03.440Z,13.00
2018-02-22T15:23:30.929Z,12.80
2018-02-22T15:25:59.232Z,12.50
2018-02-22T15:28:27.302Z,12.50
2018-02-22T15:30:54.773Z,12.60
2018-02-22T15:33:22.230Z,12.60
2018-02-22T15:35:50.055Z,12.60
2018-02-22T15:38:18.280Z,12.30
2018-02-22T15:40:46.057Z,12.30
2018-02-22T15:43:13.575Z,12.30
2018-02-22T15:45:41.138Z,12.20
2018-02-22T15:48:08.580Z,12.20
2018-02-22T15:50:36.402Z,12.30
2018-02-22T15:53:03.874Z,12.20
2018-02-22T15:55:32.535Z,12.10
2018-02-22T15:58:00.004Z,12.10
2018-02-22T16:00:27.456Z,12.00
2018-02-22T16:02:55.812Z,11.70
2018-02-22T16:05:23.303Z,11.70
2018-02-22T16:07:51.540Z,11.40
2018-02-22T16:10:18.986Z,11.40
2018-02-22T16:12:46.483Z,11.20
2018-02-22T16:15:13.945Z,11.20
2018-02-22T16:17:41.472Z,11.10
2018-02-22T16:20:08.925Z,11.00
2018-02-22T16:22:36.398Z,11.00
2018-02-22T16:25:03.890Z,10.90
2018-02-22T16:27:32.289Z,10.80
2018-02-22T16:30:00.306Z,10.90
2018-02-22T16:32:27.848Z,10.90
2018-02-22T16:34:55.973Z,11.00
2018-02-22T16:37:23.432Z,11.00
2018-02-22T16:39:51.347Z,10.90
2018-02-22T16:42:19.267Z,10.70
2018-02-22T16:44:46.737Z,10.40
2018-02-22T16:47:14.216Z,10.00
2018-02-22T16:49:41.706Z,9.70
2018-02-22T16:52:09.684Z,9.50
2018-02-22T16:54:38.970Z,9.10
2018-02-22T16:57:06.431Z,9.10
2018-02-22T16:59:34.226Z,8.90
2018-02-22T17:02:02.487Z,8.60
2018-02-22T17:04:30.694Z,8.50
2018-02-22T17:06:58.397Z,8.40
2018-02-22T17:09:25.867Z,8.40
2018-02-22T17:11:53.410Z,8.20
2018-02-22T17:14:21.142Z,8.20
2018-02-22T17:16:48.728Z,8.10
2018-02-22T17:19:16.223Z,8.00
2018-02-22T17:21:44.529Z,7.90
2018-02-22T17:24:12.001Z,7.90
2018-02-22T17:26:45.208Z,7.90
2018-02-22T17:29:18.368Z,7.80
2018-02-22T17:31:52.005Z,7.70
2018-02-22T17:34:21.098Z,7.60
2018-02-22T17:36:51.133Z,7.50
2018-02-22T17:39:25.556Z,7.50
2018-02-22T17:41:54.447Z,7.30
2018-02-22T17:44:21.895Z,7.30
2018-02-22T17:46:49.381Z,7.30
2018-02-22T17:49:17.681Z,7.30
2018-02-22T17:51:45.156Z,7.30
2018-02-22T17:54:12.616Z,7.30
2018-02-22T17:56:40.569Z,7.20
2018-02-22T17:59:08.031Z,7.20
2018-02-22T18:01:35.515Z,7.10
2018-02-22T18:04:03.058Z,7.10
2018-02-22T18:06:30.508Z,7.10
2018-02-22T18:08:58.058Z,7.00
2018-02-22T18:11:25.564Z,7.00
2018-02-22T18:13:53.827Z,6.90
2018-02-22T18:16:21.288Z,6.80
2018-02-22T18:18:48.756Z,6.80
2018-02-22T18:21:17.004Z,6.70
2018-02-22T18:23:45.205Z,6.70
2018-02-22T18:26:13.946Z,6.50
2018-02-22T18:28:41.412Z,6.50
2018-02-22T18:31:08.883Z,6.50
2018-02-22T18:33:37.057Z,6.40
2018-02-22T18:36:04.824Z,6.30
2018-02-22T18:38:38.728Z,6.30
2018-02-22T18:41:09.657Z,6.30
2018-02-22T18:43:41.048Z,6.20
2018-02-22T18:46:09.256Z,6.10
2018-02-22T18:48:36.723Z,6.10
2018-02-22T18:51:04.205Z,6.00
2018-02-22T18:53:31.662Z,5.90
2018-02-22T18:55:59.497Z,5.80
2018-02-22T18:58:26.942Z,5.80
2018-02-22T19:00:54.458Z,5.70
2018-02-22T19:03:21.895Z,5.70
2018-02-22T19:05:49.443Z,5.60
2018-02-22T19:08:17.101Z,5.60
2018-02-22T19:10:44.620Z,5.50
2018-02-22T19:13:12.070Z,5.50
2018-02-22T19:15:40.404Z,5.50
2018-02-22T19:18:07.905Z,5.50
2018-02-22T19:20:35.369Z,5.40
2018-02-22T19:23:02.836Z,5.40
2018-02-22T19:25:30.317Z,5.40
2018-02-22T19:27:57.838Z,5.40
2018-02-22T19:30:25.354Z,5.30
2018-02-22T19:32:52.793Z,5.30
2018-02-22T19:35:20.589Z,5.30
2018-02-22T19:37:49.356Z,5.30
2018-02-22T19:40:17.219Z,5.20
2018-02-22T19:42:44.676Z,5.30
2018-02-22T19:45:12.199Z,5.20
2018-02-22T19:47:39.679Z,5.30
2018-02-22T19:50:07.131Z,5.30
2018-02-22T19:52:34.704Z,5.30
2018-02-22T19:55:02.669Z,5.30
2018-02-22T19:57:30.144Z,5.30
2018-02-22T19:59:58.090Z,5.30
2018-02-22T20:02:25.536Z,5.40
2018-02-22T20:04:53.034Z,5.40
2018-02-22T20:07:20.785Z,5.40
2018-02-22T20:09:48.235Z,5.40
2018-02-22T20:12:16.207Z,5.40
2018-02-22T20:14:43.861Z,5.50
2018-02-22T20:17:11.333Z,5.50
2018-02-22T20:19:38.788Z,5.50
2018-02-22T20:22:06.296Z,5.60
2018-02-22T20:24:33.738Z,5.60
2018-02-22T20:27:01.317Z,5.50
2018-02-22T20:29:29.024Z,5.50
2018-02-22T20:31:56.476Z,5.50
2018-02-22T20:34:24.334Z,5.40
2018-02-22T20:36:51.780Z,5.40
2018-02-22T20:39:19.688Z,5.30
2018-02-22T20:41:47.892Z,5.20
2018-02-22T20:44:15.596Z,5.30
2018-02-22T20:46:43.051Z,5.20
2018-02-22T20:49:10.544Z,5.20
2018-02-22T20:51:55.412Z,5.10
2018-02-22T20:54:24.270Z,5.10
2018-02-22T20:56:52.496Z,5.10
2018-02-22T20:59:20.236Z,5.10
2018-02-22T21:01:47.678Z,5.10
2018-02-22T21:04:16.717Z,5.00
2018-02-22T21:06:44.181Z,5.00
2018-02-22T21:09:11.632Z,5.00
2018-02-22T21:11:39.153Z,5.00
2018-02-22T21:14:07.374Z,4.90
2018-02-22T21:16:34.945Z,4.90
2018-02-22T21:19:04.344Z,4.80
2018-02-22T21:21:31.844Z,4.80
2018-02-22T21:24:00.054Z,4.80
2018-02-22T21:26:27.496Z,4.80
2018-02-22T21:28:55.210Z,4.80
2018-02-22T21:31:22.694Z,4.70
2018-02-22T21:33:51.671Z,4.70
2018-02-22T21:36:21.063Z,4.70
2018-02-22T21:38:48.847Z,4.70
2018-02-22T21:41:17.407Z,4.60
2018-02-22T21:43:45.053Z,4.60
2018-02-22T21:46:12.507Z,4.60
2018-02-22T21:48:39.958Z,4.60
2018-02-22T21:51:07.685Z,4.60
2018-02-22T21:53:35.136Z,4.60
2018-02-22T21:56:03.123Z,4.50
2018-02-22T21:58:31.025Z,4.50
2018-02-22T22:00:58.477Z,4.50
2018-02-22T22:03:25.957Z,4.40
2018-02-22T22:05:53.418Z,4.50
2018-02-22T22:08:21.652Z,4.50
2018-02-22T22:10:49.179Z,4.50
2018-02-22T22:13:16.724Z,4.40
2018-02-22T22:15:45.065Z,4.40
2018-02-22T22:18:12.526Z,4.40
2018-02-22T22:20:40.064Z,4.50
2018-02-22T22:23:07.857Z,4.40
2018-02-22T22:25:35.331Z,4.40
2018-02-22T22:28:03.769Z,4.30
2018-02-22T22:30:31.214Z,4.30
2018-02-22T22:32:58.723Z,4.30
2018-02-22T22:35:27.480Z,4.30
2018-02-22T22:37:54.931Z,4.20
2018-02-22T22:40:22.699Z,4.20
2018-02-22T22:42:50.169Z,4.20
2018-02-22T22:45:17.878Z,4.20
2018-02-22T22:47:45.326Z,4.10
2018-02-22T22:50:12.935Z,4.10
2018-02-22T22:52:40.426Z,4.00
2018-02-22T22:55:08.987Z,3.90
2018-02-22T22:57:37.198Z,3.90
2018-02-22T23:00:04.686Z,3.90
2018-02-22T23:02:32.126Z,3.90
2018-02-22T23:04:59.618Z,3.90
2018-02-22T23:07:27.073Z,3.80
2018-02-22T23:09:54.641Z,3.80
2018-02-22T23:12:24.142Z,3.80
2018-02-22T23:14:51.591Z,3.80
2018-02-22T23:17:19.058Z,3.70
2018-02-22T23:19:46.535Z,3.70
2018-02-22T23:22:14.873Z,3.70
2018-02-22T23:24:42.321Z,3.70
2018-02-22T23:27:09.864Z,3.70
2018-02-22T23:29:37.307Z,3.70
2018-02-22T23:32:05.904Z,3.70
2018-02-22T23:34:33.926Z,3.60
2018-02-22T23:37:01.777Z,3.60
2018-02-22T23:39:29.692Z,3.60
2018-02-22T23:41:59.038Z,3.60
2018-02-22T23:44:26.719Z,3.60
2018-02-22T23:46:54.869Z,3.50
2018-02-22T23:49:22.374Z,3.50
2018-02-22T23:51:49.788Z,3.60
2018-02-22T23:54:19.401Z,3.60
2018-02-22T23:56:46.841Z,3.60
2018-02-22T23:59:14.321Z,3.60
